sensor_id;sensor_type;location;lat;lon;timestamp;temperature;humidity
10846;DHT22;5476;51.540;7.186;2022-10-17T00:02:47;16.60;99.90
10846;DHT22;5476;51.540;7.186;2022-10-17T00:05:14;16.60;99.90
10846;DHT22;5476;51.540;7.186;2022-10-17T00:10:10;16.60;99.90
10846;DHT22;5476;51.540;7.186;2022-10-17T00:15:06;16.50;99.90
10846;DHT22;5476;51.540;7.186;2022-10-17T00:17:33;16.50;99.90
10846;DHT22;5476;51.540;7.186;2022-10-17T00:27:24;16.40;99.90
10846;DHT22;5476;51.540;7.186;2022-10-17T00:32:18;16.40;99.90
10846;DHT22;5476;51.540;7.186;2022-10-17T00:42:09;16.30;99.90
10846;DHT22;5476;51.540;7.186;2022-10-17T00:45:02;16.30;99.90
10846;DHT22;5476;51.540;7.186;2022-10-17T00:52:27;16.20;99.90
10846;DHT22;5476;51.540;7.186;2022-10-17T00:54:58;16.20;99.90
10846;DHT22;5476;51.540;7.186;2022-10-17T00:57:28;16.20;99.90
10846;DHT22;5476;51.540;7.186;2022-10-17T00:59:58;16.20;99.90
10846;DHT22;5476;51.540;7.186;2022-10-17T01:02:27;16.20;99.90
10846;DHT22;5476;51.540;7.186;2022-10-17T01:04:56;16.10;99.90
10846;DHT22;5476;51.540;7.186;2022-10-17T01:09:52;16.10;99.90
10846;DHT22;5476;51.540;7.186;2022-10-17T01:12:23;16.10;99.90
10846;DHT22;5476;51.540;7.186;2022-10-17T01:15:07;16.10;99.90
10846;DHT22;5476;51.540;7.186;2022-10-17T01:17:45;16.10;99.90
10846;DHT22;5476;51.540;7.186;2022-10-17T01:20:58;16.00;99.90
10846;DHT22;5476;51.540;7.186;2022-10-17T01:23:45;16.00;99.90
10846;DHT22;5476;51.540;7.186;2022-10-17T01:26:23;18.80;99.90
10846;DHT22;5476;51.540;7.186;2022-10-17T01:29:14;16.00;99.90
10846;DHT22;5476;51.540;7.186;2022-10-17T01:31:53;15.90;99.90
10846;DHT22;5476;51.540;7.186;2022-10-17T01:34:27;15.90;99.90
10846;DHT22;5476;51.540;7.186;2022-10-17T01:37:01;15.90;99.90
10846;DHT22;5476;51.540;7.186;2022-10-17T01:39:37;15.90;99.90
10846;DHT22;5476;51.540;7.186;2022-10-17T01:42:11;15.90;99.90
10846;DHT22;5476;51.540;7.186;2022-10-17T01:44:45;15.90;99.90
10846;DHT22;5476;51.540;7.186;2022-10-17T01:47:18;15.90;99.90
10846;DHT22;5476;51.540;7.186;2022-10-17T01:49:49;15.90;99.90
10846;DHT22;5476;51.540;7.186;2022-10-17T01:52:22;15.80;99.90
10846;DHT22;5476;51.540;7.186;2022-10-17T01:54:52;15.80;99.90
10846;DHT22;5476;51.540;7.186;2022-10-17T01:57:30;15.80;99.90
10846;DHT22;5476;51.540;7.186;2022-10-17T02:00:00;15.80;99.90
10846;DHT22;5476;51.540;7.186;2022-10-17T02:02:30;15.80;99.90
10846;DHT22;5476;51.540;7.186;2022-10-17T02:04:58;15.70;99.90
10846;DHT22;5476;51.540;7.186;2022-10-17T02:12:36;15.70;99.90
10846;DHT22;5476;51.540;7.186;2022-10-17T02:15:24;15.60;99.90
10846;DHT22;5476;51.540;7.186;2022-10-17T02:18:03;15.60;99.90
10846;DHT22;5476;51.540;7.186;2022-10-17T02:20:38;15.60;99.90
10846;DHT22;5476;51.540;7.186;2022-10-17T02:23:12;15.60;99.90
10846;DHT22;5476;51.540;7.186;2022-10-17T02:25:53;15.60;99.90
10846;DHT22;5476;51.540;7.186;2022-10-17T02:28:27;15.60;99.90
10846;DHT22;5476;51.540;7.186;2022-10-17T02:31:01;15.60;99.90
10846;DHT22;5476;51.540;7.186;2022-10-17T02:33:34;15.50;99.90
10846;DHT22;5476;51.540;7.186;2022-10-17T02:36:06;15.50;99.90
10846;DHT22;5476;51.540;7.186;2022-10-17T02:41:05;15.50;99.90
10846;DHT22;5476;51.540;7.186;2022-10-17T02:43:35;15.50;99.90
10846;DHT22;5476;51.540;7.186;2022-10-17T02:48:36;15.40;99.90
10846;DHT22;5476;51.540;7.186;2022-10-17T02:51:08;15.40;99.90
10846;DHT22;5476;51.540;7.186;2022-10-17T02:53:45;15.40;99.90
10846;DHT22;5476;51.540;7.186;2022-10-17T02:56:17;15.40;99.90
10846;DHT22;5476;51.540;7.186;2022-10-17T02:58:47;15.40;99.90
10846;DHT22;5476;51.540;7.186;2022-10-17T03:01:16;15.40;99.90
10846;DHT22;5476;51.540;7.186;2022-10-17T03:03:45;15.40;99.90
10846;DHT22;5476;51.540;7.186;2022-10-17T03:20:56;15.40;99.90
10846;DHT22;5476;51.540;7.186;2022-10-17T03:43:03;15.50;99.90
10846;DHT22;5476;51.540;7.186;2022-10-17T03:55:20;15.60;99.90
10846;DHT22;5476;51.540;7.186;2022-10-17T04:10:05;15.60;99.90
10846;DHT22;5476;51.540;7.186;2022-10-17T04:12:33;15.60;99.90
10846;DHT22;5476;51.540;7.186;2022-10-17T04:15:00;15.60;99.90
10846;DHT22;5476;51.540;7.186;2022-10-17T04:17:29;15.70;99.90
10846;DHT22;5476;51.540;7.186;2022-10-17T04:27:19;15.60;99.90
10846;DHT22;5476;51.540;7.186;2022-10-17T04:29:48;15.60;99.90
10846;DHT22;5476;51.540;7.186;2022-10-17T04:47:01;15.60;99.90
10846;DHT22;5476;51.540;7.186;2022-10-17T04:51:55;15.60;99.90
10846;DHT22;5476;51.540;7.186;2022-10-17T05:21:27;16.00;99.90
10846;DHT22;5476;51.540;7.186;2022-10-17T05:36:12;16.30;99.90
10846;DHT22;5476;51.540;7.186;2022-10-17T05:38:42;16.30;99.90
10846;DHT22;5476;51.540;7.186;2022-10-17T05:48:32;16.50;99.90
10846;DHT22;5476;51.540;7.186;2022-10-17T05:55:58;16.60;99.90
10846;DHT22;5476;51.540;7.186;2022-10-17T05:58:26;16.60;99.90
10846;DHT22;5476;51.540;7.186;2022-10-17T06:00:57;16.70;99.90
10846;DHT22;5476;51.540;7.186;2022-10-17T06:03:24;16.70;99.90
10846;DHT22;5476;51.540;7.186;2022-10-17T06:10:47;16.80;99.90
10846;DHT22;5476;51.540;7.186;2022-10-17T06:13:29;16.80;99.90
10846;DHT22;5476;51.540;7.186;2022-10-17T06:18:23;16.70;99.90
10846;DHT22;5476;51.540;7.186;2022-10-17T06:30:41;16.70;99.90
10846;DHT22;5476;51.540;7.186;2022-10-17T06:40:39;16.80;99.90
10846;DHT22;5476;51.540;7.186;2022-10-17T06:50:50;16.90;99.90
10846;DHT22;5476;51.540;7.186;2022-10-17T07:03:07;17.00;99.90
10846;DHT22;5476;51.540;7.186;2022-10-17T07:08:03;17.00;99.90
10846;DHT22;5476;51.540;7.186;2022-10-17T07:17:57;17.30;99.90
10846;DHT22;5476;51.540;7.186;2022-10-17T07:20:26;17.40;99.90
10846;DHT22;5476;51.540;7.186;2022-10-17T07:27:48;17.50;99.90
10846;DHT22;5476;51.540;7.186;2022-10-17T07:30:15;17.60;99.90
10846;DHT22;5476;51.540;7.186;2022-10-17T07:32:42;17.70;99.90
10846;DHT22;5476;51.540;7.186;2022-10-17T07:35:09;17.80;99.90
10846;DHT22;5476;51.540;7.186;2022-10-17T07:37:38;17.90;99.90
10846;DHT22;5476;51.540;7.186;2022-10-17T07:40:06;17.90;99.90
10846;DHT22;5476;51.540;7.186;2022-10-17T07:42:35;18.00;99.90
10846;DHT22;5476;51.540;7.186;2022-10-17T07:45:04;18.10;99.90
10846;DHT22;5476;51.540;7.186;2022-10-17T07:54:56;18.40;99.90
10846;DHT22;5476;51.540;7.186;2022-10-17T08:02:21;18.60;99.90
10846;DHT22;5476;51.540;7.186;2022-10-17T08:12:12;18.80;99.90
10846;DHT22;5476;51.540;7.186;2022-10-17T08:19:37;19.10;99.90
10846;DHT22;5476;51.540;7.186;2022-10-17T08:29:27;19.40;99.90
10846;DHT22;5476;51.540;7.186;2022-10-17T08:31:56;19.50;99.90
10846;DHT22;5476;51.540;7.186;2022-10-17T08:41:54;19.90;99.90
10846;DHT22;5476;51.540;7.186;2022-10-17T08:44:32;20.00;99.90
10846;DHT22;5476;51.540;7.186;2022-10-17T08:47:05;20.20;99.90
10846;DHT22;5476;51.540;7.186;2022-10-17T08:49:40;20.40;99.90
10846;DHT22;5476;51.540;7.186;2022-10-17T08:52:15;20.70;99.90
10846;DHT22;5476;51.540;7.186;2022-10-17T08:54:45;21.00;99.90
10846;DHT22;5476;51.540;7.186;2022-10-17T08:57:16;21.20;99.90
10846;DHT22;5476;51.540;7.186;2022-10-17T08:59:51;21.60;99.90
10846;DHT22;5476;51.540;7.186;2022-10-17T09:05:23;22.40;99.90
10846;DHT22;5476;51.540;7.186;2022-10-17T09:08:01;22.70;99.90
10846;DHT22;5476;51.540;7.186;2022-10-17T09:10:37;22.60;99.90
10846;DHT22;5476;51.540;7.186;2022-10-17T09:13:16;22.60;99.90
10846;DHT22;5476;51.540;7.186;2022-10-17T09:15:59;22.60;99.90
10846;DHT22;5476;51.540;7.186;2022-10-17T09:18:34;22.60;99.90
10846;DHT22;5476;51.540;7.186;2022-10-17T09:21:13;22.60;99.90
10846;DHT22;5476;51.540;7.186;2022-10-17T09:23:44;22.80;99.90
10846;DHT22;5476;51.540;7.186;2022-10-17T09:26:16;22.80;99.90
10846;DHT22;5476;51.540;7.186;2022-10-17T09:28:49;22.80;99.90
10846;DHT22;5476;51.540;7.186;2022-10-17T09:31:22;22.80;99.90
10846;DHT22;5476;51.540;7.186;2022-10-17T09:33:51;23.00;99.90
10846;DHT22;5476;51.540;7.186;2022-10-17T09:36:22;23.10;99.90
10846;DHT22;5476;51.540;7.186;2022-10-17T09:38:52;23.10;99.90
10846;DHT22;5476;51.540;7.186;2022-10-17T09:41:23;23.10;99.90
10846;DHT22;5476;51.540;7.186;2022-10-17T09:43:55;23.10;99.90
10846;DHT22;5476;51.540;7.186;2022-10-17T09:46:25;23.10;99.90
10846;DHT22;5476;51.540;7.186;2022-10-17T09:49:00;22.40;99.90
10846;DHT22;5476;51.540;7.186;2022-10-17T09:53:58;23.00;99.90
10846;DHT22;5476;51.540;7.186;2022-10-17T09:58:56;22.80;99.90
10846;DHT22;5476;51.540;7.186;2022-10-17T10:01:26;22.60;99.90
10846;DHT22;5476;51.540;7.186;2022-10-17T10:04:10;22.60;99.90
10846;DHT22;5476;51.540;7.186;2022-10-17T10:09:29;22.50;99.90
10846;DHT22;5476;51.540;7.186;2022-10-17T10:11:57;22.40;99.90
10846;DHT22;5476;51.540;7.186;2022-10-17T10:14:28;22.30;99.90
10846;DHT22;5476;51.540;7.186;2022-10-17T10:16:59;22.30;99.90
10846;DHT22;5476;51.540;7.186;2022-10-17T10:19:28;22.20;99.90
10846;DHT22;5476;51.540;7.186;2022-10-17T10:21:58;22.20;99.90
10846;DHT22;5476;51.540;7.186;2022-10-17T10:26:54;22.20;99.90
10846;DHT22;5476;51.540;7.186;2022-10-17T10:29:25;22.10;99.90
10846;DHT22;5476;51.540;7.186;2022-10-17T10:34:26;22.00;99.90
10846;DHT22;5476;51.540;7.186;2022-10-17T10:37:00;22.00;99.90
10846;DHT22;5476;51.540;7.186;2022-10-17T10:39:41;22.00;99.90
10846;DHT22;5476;51.540;7.186;2022-10-17T10:42:19;22.00;99.90
10846;DHT22;5476;51.540;7.186;2022-10-17T10:44:47;22.00;99.90
10846;DHT22;5476;51.540;7.186;2022-10-17T10:47:19;22.00;99.90
10846;DHT22;5476;51.540;7.186;2022-10-17T10:49:50;19.70;99.90
10846;DHT22;5476;51.540;7.186;2022-10-17T10:52:28;22.00;99.90
10846;DHT22;5476;51.540;7.186;2022-10-17T10:55:02;22.00;99.90
10846;DHT22;5476;51.540;7.186;2022-10-17T10:57:32;22.00;99.90
10846;DHT22;5476;51.540;7.186;2022-10-17T11:00:08;22.10;99.90
10846;DHT22;5476;51.540;7.186;2022-10-17T11:02:45;22.10;99.90
10846;DHT22;5476;51.540;7.186;2022-10-17T11:05:23;22.20;99.90
10846;DHT22;5476;51.540;7.186;2022-10-17T11:07:58;22.30;99.90
10846;DHT22;5476;51.540;7.186;2022-10-17T11:10:34;22.30;99.90
10846;DHT22;5476;51.540;7.186;2022-10-17T11:13:08;22.30;99.90
10846;DHT22;5476;51.540;7.186;2022-10-17T11:15:41;22.20;99.90
10846;DHT22;5476;51.540;7.186;2022-10-17T11:18:15;22.20;99.90
10846;DHT22;5476;51.540;7.186;2022-10-17T11:20:59;22.20;99.90
10846;DHT22;5476;51.540;7.186;2022-10-17T11:23:34;22.20;99.90
10846;DHT22;5476;51.540;7.186;2022-10-17T11:26:07;22.10;99.90
10846;DHT22;5476;51.540;7.186;2022-10-17T11:28:39;22.10;99.90
10846;DHT22;5476;51.540;7.186;2022-10-17T11:31:12;22.10;99.90
10846;DHT22;5476;51.540;7.186;2022-10-17T11:33:54;22.10;99.90
10846;DHT22;5476;51.540;7.186;2022-10-17T11:36:27;22.00;99.90
10846;DHT22;5476;51.540;7.186;2022-10-17T11:38:59;22.00;99.90
10846;DHT22;5476;51.540;7.186;2022-10-17T11:41:31;22.00;99.90
10846;DHT22;5476;51.540;7.186;2022-10-17T11:44:04;22.20;99.90
10846;DHT22;5476;51.540;7.186;2022-10-17T11:46:34;21.90;99.90
10846;DHT22;5476;51.540;7.186;2022-10-17T11:49:09;22.00;99.90
10846;DHT22;5476;51.540;7.186;2022-10-17T11:51:44;22.00;99.90
10846;DHT22;5476;51.540;7.186;2022-10-17T11:54:15;22.00;99.90
10846;DHT22;5476;51.540;7.186;2022-10-17T11:56:50;22.00;99.90
10846;DHT22;5476;51.540;7.186;2022-10-17T11:59:46;22.10;99.90
10846;DHT22;5476;51.540;7.186;2022-10-17T12:02:19;22.10;99.90
10846;DHT22;5476;51.540;7.186;2022-10-17T12:04:55;22.10;99.90
10846;DHT22;5476;51.540;7.186;2022-10-17T12:07:35;22.10;99.90
10846;DHT22;5476;51.540;7.186;2022-10-17T12:10:19;22.10;99.90
10846;DHT22;5476;51.540;7.186;2022-10-17T12:12:47;22.00;99.90
10846;DHT22;5476;51.540;7.186;2022-10-17T12:15:28;22.00;99.90
10846;DHT22;5476;51.540;7.186;2022-10-17T12:17:55;22.00;99.90
10846;DHT22;5476;51.540;7.186;2022-10-17T12:20:31;21.90;99.90
10846;DHT22;5476;51.540;7.186;2022-10-17T12:23:16;21.90;99.90
10846;DHT22;5476;51.540;7.186;2022-10-17T12:25:48;22.00;99.90
10846;DHT22;5476;51.540;7.186;2022-10-17T12:28:18;21.90;99.90
10846;DHT22;5476;51.540;7.186;2022-10-17T12:30:55;21.90;99.90
10846;DHT22;5476;51.540;7.186;2022-10-17T12:33:28;21.90;99.90
10846;DHT22;5476;51.540;7.186;2022-10-17T12:42:48;21.80;99.90
10846;DHT22;5476;51.540;7.186;2022-10-17T12:45:44;21.80;99.90
10846;DHT22;5476;51.540;7.186;2022-10-17T12:48:11;21.80;99.90
10846;DHT22;5476;51.540;7.186;2022-10-17T12:51:02;21.80;99.90
10846;DHT22;5476;51.540;7.186;2022-10-17T12:53:37;21.70;99.90
10846;DHT22;5476;51.540;7.186;2022-10-17T12:56:06;21.70;99.90
10846;DHT22;5476;51.540;7.186;2022-10-17T12:58:35;21.70;99.90
10846;DHT22;5476;51.540;7.186;2022-10-17T13:01:03;21.70;99.90
10846;DHT22;5476;51.540;7.186;2022-10-17T13:03:42;21.60;99.90
10846;DHT22;5476;51.540;7.186;2022-10-17T13:06:17;21.50;99.90
10846;DHT22;5476;51.540;7.186;2022-10-17T13:08:48;21.50;99.90
10846;DHT22;5476;51.540;7.186;2022-10-17T13:13:46;21.50;99.90
10846;DHT22;5476;51.540;7.186;2022-10-17T13:16:27;21.50;99.90
10846;DHT22;5476;51.540;7.186;2022-10-17T13:21:22;21.50;99.90
10846;DHT22;5476;51.540;7.186;2022-10-17T13:26:20;21.50;99.90
10846;DHT22;5476;51.540;7.186;2022-10-17T13:29:02;21.50;99.90
10846;DHT22;5476;51.540;7.186;2022-10-17T13:31:31;21.50;99.90
10846;DHT22;5476;51.540;7.186;2022-10-17T13:34:02;21.40;99.90
10846;DHT22;5476;51.540;7.186;2022-10-17T13:36:30;21.30;99.90
10846;DHT22;5476;51.540;7.186;2022-10-17T13:38:59;21.30;99.90
10846;DHT22;5476;51.540;7.186;2022-10-17T13:41:31;21.30;99.90
10846;DHT22;5476;51.540;7.186;2022-10-17T13:44:03;21.20;99.90
10846;DHT22;5476;51.540;7.186;2022-10-17T13:49:10;21.10;99.90
10846;DHT22;5476;51.540;7.186;2022-10-17T13:51:42;21.10;99.90
10846;DHT22;5476;51.540;7.186;2022-10-17T13:54:36;21.00;99.90
10846;DHT22;5476;51.540;7.186;2022-10-17T13:57:13;21.00;99.90
10846;DHT22;5476;51.540;7.186;2022-10-17T13:59:43;21.00;99.90
10846;DHT22;5476;51.540;7.186;2022-10-17T14:02:14;21.00;99.90
10846;DHT22;5476;51.540;7.186;2022-10-17T14:07:20;20.90;99.90
10846;DHT22;5476;51.540;7.186;2022-10-17T14:09:49;20.90;99.90
10846;DHT22;5476;51.540;7.186;2022-10-17T14:12:18;20.90;99.90
10846;DHT22;5476;51.540;7.186;2022-10-17T14:14:49;20.90;99.90
10846;DHT22;5476;51.540;7.186;2022-10-17T14:17:21;20.90;99.90
10846;DHT22;5476;51.540;7.186;2022-10-17T14:19:51;20.90;99.90
10846;DHT22;5476;51.540;7.186;2022-10-17T14:22:25;20.90;99.90
10846;DHT22;5476;51.540;7.186;2022-10-17T14:27:25;20.90;99.90
10846;DHT22;5476;51.540;7.186;2022-10-17T14:29:55;20.90;99.90
10846;DHT22;5476;51.540;7.186;2022-10-17T14:32:26;21.00;99.90
10846;DHT22;5476;51.540;7.186;2022-10-17T14:34:55;21.10;99.90
10846;DHT22;5476;51.540;7.186;2022-10-17T14:37:33;21.00;99.90
10846;DHT22;5476;51.540;7.186;2022-10-17T14:40:05;21.00;99.90
10846;DHT22;5476;51.540;7.186;2022-10-17T14:42:37;21.00;99.90
10846;DHT22;5476;51.540;7.186;2022-10-17T14:45:11;20.90;99.90
10846;DHT22;5476;51.540;7.186;2022-10-17T14:50:17;20.90;99.90
10846;DHT22;5476;51.540;7.186;2022-10-17T14:52:58;20.90;99.90
10846;DHT22;5476;51.540;7.186;2022-10-17T14:55:27;20.90;99.90
10846;DHT22;5476;51.540;7.186;2022-10-17T15:00:24;20.80;99.90
10846;DHT22;5476;51.540;7.186;2022-10-17T15:02:53;20.80;99.90
10846;DHT22;5476;51.540;7.186;2022-10-17T15:05:21;20.80;99.90
10846;DHT22;5476;51.540;7.186;2022-10-17T15:10:25;20.80;99.90
10846;DHT22;5476;51.540;7.186;2022-10-17T15:16:34;20.70;99.90
10846;DHT22;5476;51.540;7.186;2022-10-17T15:21:10;20.70;99.90
10846;DHT22;5476;51.540;7.186;2022-10-17T15:26:15;20.60;99.90
10846;DHT22;5476;51.540;7.186;2022-10-17T15:31:13;20.60;99.90
10846;DHT22;5476;51.540;7.186;2022-10-17T15:36:18;20.50;99.90
10846;DHT22;5476;51.540;7.186;2022-10-17T15:38:46;20.40;99.90
10846;DHT22;5476;51.540;7.186;2022-10-17T15:43:40;20.30;99.90
10846;DHT22;5476;51.540;7.186;2022-10-17T15:46:13;20.20;99.90
10846;DHT22;5476;51.540;7.186;2022-10-17T15:56:04;20.10;99.90
10846;DHT22;5476;51.540;7.186;2022-10-17T15:58:35;20.10;99.90
10846;DHT22;5476;51.540;7.186;2022-10-17T16:01:03;20.10;99.90
10846;DHT22;5476;51.540;7.186;2022-10-17T16:03:32;20.00;99.90
10846;DHT22;5476;51.540;7.186;2022-10-17T16:13:22;19.90;99.90
10846;DHT22;5476;51.540;7.186;2022-10-17T16:20:47;19.70;99.90
10846;DHT22;5476;51.540;7.186;2022-10-17T16:30:40;19.60;99.90
10846;DHT22;5476;51.540;7.186;2022-10-17T16:38:06;19.60;99.90
10846;DHT22;5476;51.540;7.186;2022-10-17T16:40:34;19.60;99.90
10846;DHT22;5476;51.540;7.186;2022-10-17T16:50:25;19.60;99.90
10846;DHT22;5476;51.540;7.186;2022-10-17T17:05:10;19.50;99.90
10846;DHT22;5476;51.540;7.186;2022-10-17T17:07:38;19.50;99.90
10846;DHT22;5476;51.540;7.186;2022-10-17T17:10:06;19.40;99.90
10846;DHT22;5476;51.540;7.186;2022-10-17T17:12:35;19.40;99.90
10846;DHT22;5476;51.540;7.186;2022-10-17T17:15:02;19.40;99.90
10846;DHT22;5476;51.540;7.186;2022-10-17T17:19:57;19.30;99.90
10846;DHT22;5476;51.540;7.186;2022-10-17T17:29:47;19.30;99.90
10846;DHT22;5476;51.540;7.186;2022-10-17T17:42:03;19.20;99.90
10846;DHT22;5476;51.540;7.186;2022-10-17T17:46:59;19.20;99.90
10846;DHT22;5476;51.540;7.186;2022-10-17T17:56:47;19.10;99.90
10846;DHT22;5476;51.540;7.186;2022-10-17T18:01:42;19.10;99.90
10846;DHT22;5476;51.540;7.186;2022-10-17T18:04:13;19.10;99.90
10846;DHT22;5476;51.540;7.186;2022-10-17T18:06:44;19.10;99.90
10846;DHT22;5476;51.540;7.186;2022-10-17T18:14:10;19.00;99.90
10846;DHT22;5476;51.540;7.186;2022-10-17T18:19:05;19.00;99.90
10846;DHT22;5476;51.540;7.186;2022-10-17T18:21:35;19.00;99.90
10846;DHT22;5476;51.540;7.186;2022-10-17T18:24:03;18.90;99.90
10846;DHT22;5476;51.540;7.186;2022-10-17T18:33:57;18.80;99.90
10846;DHT22;5476;51.540;7.186;2022-10-17T18:36:26;18.80;99.90
10846;DHT22;5476;51.540;7.186;2022-10-17T18:38:55;18.80;99.90
10846;DHT22;5476;51.540;7.186;2022-10-17T18:41:23;18.70;99.90
10846;DHT22;5476;51.540;7.186;2022-10-17T18:43:52;18.80;99.90
10846;DHT22;5476;51.540;7.186;2022-10-17T18:46:21;18.70;99.90
10846;DHT22;5476;51.540;7.186;2022-10-17T18:48:49;18.80;99.90
10846;DHT22;5476;51.540;7.186;2022-10-17T18:51:18;18.70;99.90
10846;DHT22;5476;51.540;7.186;2022-10-17T18:53:47;18.80;99.90
10846;DHT22;5476;51.540;7.186;2022-10-17T18:56:17;18.70;99.90
10846;DHT22;5476;51.540;7.186;2022-10-17T19:01:13;18.60;99.90
10846;DHT22;5476;51.540;7.186;2022-10-17T19:06:09;18.60;99.90
10846;DHT22;5476;51.540;7.186;2022-10-17T19:08:37;18.60;99.90
10846;DHT22;5476;51.540;7.186;2022-10-17T19:11:05;18.60;99.90
10846;DHT22;5476;51.540;7.186;2022-10-17T19:13:33;18.60;99.90
10846;DHT22;5476;51.540;7.186;2022-10-17T19:16:04;18.60;99.90
10846;DHT22;5476;51.540;7.186;2022-10-17T19:18:32;18.60;99.90
10846;DHT22;5476;51.540;7.186;2022-10-17T19:21:03;18.60;99.90
10846;DHT22;5476;51.540;7.186;2022-10-17T19:26:03;18.70;99.90
10846;DHT22;5476;51.540;7.186;2022-10-17T19:28:33;18.60;99.90
10846;DHT22;5476;51.540;7.186;2022-10-17T19:35:55;18.60;99.90
10846;DHT22;5476;51.540;7.186;2022-10-17T19:43:27;18.50;99.90
10846;DHT22;5476;51.540;7.186;2022-10-17T19:45:56;18.50;99.90
10846;DHT22;5476;51.540;7.186;2022-10-17T19:50:50;18.50;99.90
10846;DHT22;5476;51.540;7.186;2022-10-17T19:53:18;18.50;99.90
10846;DHT22;5476;51.540;7.186;2022-10-17T20:00:45;18.40;99.90
10846;DHT22;5476;51.540;7.186;2022-10-17T20:20:26;18.20;99.90
10846;DHT22;5476;51.540;7.186;2022-10-17T20:37:38;17.90;99.90
10846;DHT22;5476;51.540;7.186;2022-10-17T20:47:30;17.90;99.90
10846;DHT22;5476;51.540;7.186;2022-10-17T20:52:24;17.90;99.90
10846;DHT22;5476;51.540;7.186;2022-10-17T20:54:54;17.90;99.90
10846;DHT22;5476;51.540;7.186;2022-10-17T21:04:44;17.80;99.90
10846;DHT22;5476;51.540;7.186;2022-10-17T21:09:40;17.80;99.90
10846;DHT22;5476;51.540;7.186;2022-10-17T21:12:09;17.70;99.90
10846;DHT22;5476;51.540;7.186;2022-10-17T21:24:24;17.80;99.90
10846;DHT22;5476;51.540;7.186;2022-10-17T21:26:51;17.80;99.90
10846;DHT22;5476;51.540;7.186;2022-10-17T21:29:22;17.70;99.90
10846;DHT22;5476;51.540;7.186;2022-10-17T21:34:17;17.70;99.90
10846;DHT22;5476;51.540;7.186;2022-10-17T21:36:46;17.70;99.90
10846;DHT22;5476;51.540;7.186;2022-10-17T21:39:14;17.70;99.90
10846;DHT22;5476;51.540;7.186;2022-10-17T21:41:42;17.70;99.90
10846;DHT22;5476;51.540;7.186;2022-10-17T21:44:11;17.70;99.90
10846;DHT22;5476;51.540;7.186;2022-10-17T21:46:40;17.70;99.90
10846;DHT22;5476;51.540;7.186;2022-10-17T21:49:08;17.70;99.90
10846;DHT22;5476;51.540;7.186;2022-10-17T21:51:36;17.70;99.90
10846;DHT22;5476;51.540;7.186;2022-10-17T21:54:03;17.70;99.90
10846;DHT22;5476;51.540;7.186;2022-10-17T21:58:59;17.70;99.90
10846;DHT22;5476;51.540;7.186;2022-10-17T22:01:28;17.70;99.90
10846;DHT22;5476;51.540;7.186;2022-10-17T22:03:59;17.60;99.90
10846;DHT22;5476;51.540;7.186;2022-10-17T22:06:29;17.60;99.90
10846;DHT22;5476;51.540;7.186;2022-10-17T22:11:26;17.60;99.90
10846;DHT22;5476;51.540;7.186;2022-10-17T22:13:53;17.60;99.90
10846;DHT22;5476;51.540;7.186;2022-10-17T22:18:48;17.60;99.90
10846;DHT22;5476;51.540;7.186;2022-10-17T22:21:18;17.50;99.90
10846;DHT22;5476;51.540;7.186;2022-10-17T22:23:47;17.50;99.90
10846;DHT22;5476;51.540;7.186;2022-10-17T22:31:08;17.40;99.90
10846;DHT22;5476;51.540;7.186;2022-10-17T22:33:37;17.40;99.90
10846;DHT22;5476;51.540;7.186;2022-10-17T22:36:04;17.40;99.90
10846;DHT22;5476;51.540;7.186;2022-10-17T22:38:33;17.40;99.90
10846;DHT22;5476;51.540;7.186;2022-10-17T22:43:27;17.30;99.90
10846;DHT22;5476;51.540;7.186;2022-10-17T22:45:56;17.30;99.90
10846;DHT22;5476;51.540;7.186;2022-10-17T22:48:25;17.30;99.90
10846;DHT22;5476;51.540;7.186;2022-10-17T22:50:53;17.30;99.90
10846;DHT22;5476;51.540;7.186;2022-10-17T22:53:21;17.30;99.90
10846;DHT22;5476;51.540;7.186;2022-10-17T22:55:54;17.40;99.90
10846;DHT22;5476;51.540;7.186;2022-10-17T23:00:50;17.40;99.90
10846;DHT22;5476;51.540;7.186;2022-10-17T23:03:18;17.40;99.90
10846;DHT22;5476;51.540;7.186;2022-10-17T23:08:14;17.40;99.90
10846;DHT22;5476;51.540;7.186;2022-10-17T23:13:11;17.30;99.90
10846;DHT22;5476;51.540;7.186;2022-10-17T23:15:38;17.30;99.90
10846;DHT22;5476;51.540;7.186;2022-10-17T23:30:25;17.30;99.90
10846;DHT22;5476;51.540;7.186;2022-10-17T23:32:52;17.30;99.90
10846;DHT22;5476;51.540;7.186;2022-10-17T23:45:09;17.20;99.90
10846;DHT22;5476;51.540;7.186;2022-10-17T23:47:38;17.20;99.90
10846;DHT22;5476;51.540;7.186;2022-10-17T23:52:33;17.20;99.90
